sensor_id;sensor_type;location;lat;lon;timestamp;temperature;humidity
71084;DHT22;58741;52.672;13.548;2022-12-20T00:00:42;3.60;99.90
71084;DHT22;58741;52.672;13.548;2022-12-20T00:03:08;3.60;99.90
71084;DHT22;58741;52.672;13.548;2022-12-20T00:05:38;3.60;99.90
71084;DHT22;58741;52.672;13.548;2022-12-20T00:08:04;3.60;99.90
71084;DHT22;58741;52.672;13.548;2022-12-20T00:10:33;3.60;99.90
71084;DHT22;58741;52.672;13.548;2022-12-20T00:12:59;3.60;99.90
71084;DHT22;58741;52.672;13.548;2022-12-20T00:15:25;3.60;99.90
71084;DHT22;58741;52.672;13.548;2022-12-20T00:17:50;3.60;99.90
71084;DHT22;58741;52.672;13.548;2022-12-20T00:20:16;3.60;99.90
71084;DHT22;58741;52.672;13.548;2022-12-20T00:22:42;3.60;99.90
71084;DHT22;58741;52.672;13.548;2022-12-20T00:25:07;3.60;99.90
71084;DHT22;58741;52.672;13.548;2022-12-20T00:27:33;3.60;99.90
71084;DHT22;58741;52.672;13.548;2022-12-20T00:29:58;3.60;99.90
71084;DHT22;58741;52.672;13.548;2022-12-20T00:32:24;3.60;99.90
71084;DHT22;58741;52.672;13.548;2022-12-20T00:34:50;3.60;99.90
71084;DHT22;58741;52.672;13.548;2022-12-20T00:37:16;3.60;99.90
71084;DHT22;58741;52.672;13.548;2022-12-20T00:39:42;3.60;99.90
71084;DHT22;58741;52.672;13.548;2022-12-20T00:42:07;3.60;99.90
71084;DHT22;58741;52.672;13.548;2022-12-20T00:44:33;3.60;99.90
71084;DHT22;58741;52.672;13.548;2022-12-20T00:46:58;3.60;99.90
71084;DHT22;58741;52.672;13.548;2022-12-20T00:49:24;3.60;99.90
71084;DHT22;58741;52.672;13.548;2022-12-20T00:51:50;3.60;99.90
71084;DHT22;58741;52.672;13.548;2022-12-20T00:54:15;3.60;99.90
71084;DHT22;58741;52.672;13.548;2022-12-20T00:56:41;3.60;99.90
71084;DHT22;58741;52.672;13.548;2022-12-20T00:59:07;3.60;99.90
71084;DHT22;58741;52.672;13.548;2022-12-20T01:01:32;3.60;99.90
71084;DHT22;58741;52.672;13.548;2022-12-20T01:04:00;3.60;99.90
71084;DHT22;58741;52.672;13.548;2022-12-20T01:06:26;3.60;99.90
71084;DHT22;58741;52.672;13.548;2022-12-20T01:08:53;3.60;99.90
71084;DHT22;58741;52.672;13.548;2022-12-20T01:11:21;3.60;99.90
71084;DHT22;58741;52.672;13.548;2022-12-20T01:13:51;3.60;99.90
71084;DHT22;58741;52.672;13.548;2022-12-20T01:16:28;3.60;99.90
71084;DHT22;58741;52.672;13.548;2022-12-20T01:18:54;3.60;99.90
71084;DHT22;58741;52.672;13.548;2022-12-20T01:21:22;3.60;99.90
71084;DHT22;58741;52.672;13.548;2022-12-20T01:23:48;3.60;99.90
71084;DHT22;58741;52.672;13.548;2022-12-20T01:26:18;3.60;99.90
71084;DHT22;58741;52.672;13.548;2022-12-20T01:28:45;3.60;99.90
71084;DHT22;58741;52.672;13.548;2022-12-20T01:31:15;3.60;99.90
71084;DHT22;58741;52.672;13.548;2022-12-20T01:33:42;3.60;99.90
71084;DHT22;58741;52.672;13.548;2022-12-20T01:36:15;3.60;99.90
71084;DHT22;58741;52.672;13.548;2022-12-20T01:38:41;3.70;99.90
71084;DHT22;58741;52.672;13.548;2022-12-20T01:41:07;3.70;99.90
71084;DHT22;58741;52.672;13.548;2022-12-20T01:43:52;3.70;99.90
71084;DHT22;58741;52.672;13.548;2022-12-20T01:46:20;3.70;99.90
71084;DHT22;58741;52.672;13.548;2022-12-20T01:48:57;3.70;99.90
71084;DHT22;58741;52.672;13.548;2022-12-20T01:51:24;3.70;99.90
71084;DHT22;58741;52.672;13.548;2022-12-20T01:53:57;3.70;99.90
71084;DHT22;58741;52.672;13.548;2022-12-20T01:56:26;3.80;99.90
71084;DHT22;58741;52.672;13.548;2022-12-20T01:58:52;3.80;99.90
71084;DHT22;58741;52.672;13.548;2022-12-20T02:01:21;3.80;99.90
71084;DHT22;58741;52.672;13.548;2022-12-20T02:03:48;3.80;99.90
71084;DHT22;58741;52.672;13.548;2022-12-20T02:06:23;3.80;99.90
71084;DHT22;58741;52.672;13.548;2022-12-20T02:08:49;3.80;99.90
71084;DHT22;58741;52.672;13.548;2022-12-20T02:11:43;3.80;99.90
71084;DHT22;58741;52.672;13.548;2022-12-20T02:14:31;3.80;99.90
71084;DHT22;58741;52.672;13.548;2022-12-20T02:17:12;3.80;99.90
71084;DHT22;58741;52.672;13.548;2022-12-20T02:22:46;3.70;99.90
71084;DHT22;58741;52.672;13.548;2022-12-20T02:31:05;3.60;99.90
71084;DHT22;58741;52.672;13.548;2022-12-20T02:33:33;3.70;99.90
71084;DHT22;58741;52.672;13.548;2022-12-20T02:35:58;3.60;99.90
71084;DHT22;58741;52.672;13.548;2022-12-20T02:38:36;3.60;99.90
71084;DHT22;58741;52.672;13.548;2022-12-20T02:41:06;3.60;99.90
71084;DHT22;58741;52.672;13.548;2022-12-20T02:43:35;3.60;99.90
71084;DHT22;58741;52.672;13.548;2022-12-20T02:46:22;3.60;99.90
71084;DHT22;58741;52.672;13.548;2022-12-20T02:48:51;3.70;99.90
71084;DHT22;58741;52.672;13.548;2022-12-20T02:51:18;3.70;99.90
71084;DHT22;58741;52.672;13.548;2022-12-20T02:53:46;3.70;99.90
71084;DHT22;58741;52.672;13.548;2022-12-20T02:58:42;3.70;99.90
71084;DHT22;58741;52.672;13.548;2022-12-20T03:01:20;3.80;99.90
71084;DHT22;58741;52.672;13.548;2022-12-20T03:03:47;3.80;99.90
71084;DHT22;58741;52.672;13.548;2022-12-20T03:06:13;3.80;99.90
71084;DHT22;58741;52.672;13.548;2022-12-20T03:08:39;3.80;99.90
71084;DHT22;58741;52.672;13.548;2022-12-20T03:11:04;3.80;99.90
71084;DHT22;58741;52.672;13.548;2022-12-20T03:13:31;3.90;99.90
71084;DHT22;58741;52.672;13.548;2022-12-20T03:16:01;3.90;99.90
71084;DHT22;58741;52.672;13.548;2022-12-20T03:18:27;3.90;99.90
71084;DHT22;58741;52.672;13.548;2022-12-20T03:20:53;3.90;99.90
71084;DHT22;58741;52.672;13.548;2022-12-20T03:23:18;4.00;99.90
71084;DHT22;58741;52.672;13.548;2022-12-20T03:25:46;4.00;99.90
71084;DHT22;58741;52.672;13.548;2022-12-20T03:28:19;4.00;99.90
71084;DHT22;58741;52.672;13.548;2022-12-20T03:30:46;4.00;99.90
71084;DHT22;58741;52.672;13.548;2022-12-20T03:33:12;4.10;99.90
71084;DHT22;58741;52.672;13.548;2022-12-20T03:35:39;4.00;99.90
71084;DHT22;58741;52.672;13.548;2022-12-20T03:38:05;4.10;99.90
71084;DHT22;58741;52.672;13.548;2022-12-20T03:40:30;4.00;99.90
71084;DHT22;58741;52.672;13.548;2022-12-20T03:42:56;4.00;99.90
71084;DHT22;58741;52.672;13.548;2022-12-20T03:45:21;4.10;99.90
71084;DHT22;58741;52.672;13.548;2022-12-20T03:47:47;4.00;99.90
71084;DHT22;58741;52.672;13.548;2022-12-20T03:50:13;4.10;99.90
71084;DHT22;58741;52.672;13.548;2022-12-20T03:52:41;4.10;99.90
71084;DHT22;58741;52.672;13.548;2022-12-20T03:55:07;4.10;99.90
71084;DHT22;58741;52.672;13.548;2022-12-20T04:00:13;4.10;99.90
71084;DHT22;58741;52.672;13.548;2022-12-20T04:02:44;4.10;99.90
71084;DHT22;58741;52.672;13.548;2022-12-20T04:05:11;4.10;99.90
71084;DHT22;58741;52.672;13.548;2022-12-20T04:07:37;4.10;99.90
71084;DHT22;58741;52.672;13.548;2022-12-20T04:10:03;4.10;99.90
71084;DHT22;58741;52.672;13.548;2022-12-20T04:12:29;4.00;99.90
71084;DHT22;58741;52.672;13.548;2022-12-20T04:14:55;4.00;99.90
71084;DHT22;58741;52.672;13.548;2022-12-20T04:17:21;4.00;99.90
71084;DHT22;58741;52.672;13.548;2022-12-20T04:19:47;4.00;99.90
71084;DHT22;58741;52.672;13.548;2022-12-20T04:22:12;3.90;99.90
71084;DHT22;58741;52.672;13.548;2022-12-20T04:24:48;3.90;99.90
71084;DHT22;58741;52.672;13.548;2022-12-20T04:27:20;3.90;99.90
71084;DHT22;58741;52.672;13.548;2022-12-20T04:29:47;3.90;99.90
71084;DHT22;58741;52.672;13.548;2022-12-20T04:32:15;3.90;99.90
71084;DHT22;58741;52.672;13.548;2022-12-20T04:34:41;3.80;99.90
71084;DHT22;58741;52.672;13.548;2022-12-20T04:37:06;3.80;99.90
71084;DHT22;58741;52.672;13.548;2022-12-20T04:39:42;3.80;99.90
71084;DHT22;58741;52.672;13.548;2022-12-20T04:42:19;3.80;99.90
71084;DHT22;58741;52.672;13.548;2022-12-20T04:44:45;3.80;99.90
71084;DHT22;58741;52.672;13.548;2022-12-20T04:47:14;3.80;99.90
71084;DHT22;58741;52.672;13.548;2022-12-20T04:49:40;3.80;99.90
71084;DHT22;58741;52.672;13.548;2022-12-20T04:52:05;3.80;99.90
71084;DHT22;58741;52.672;13.548;2022-12-20T04:54:50;3.70;99.90
71084;DHT22;58741;52.672;13.548;2022-12-20T04:57:21;3.70;99.90
71084;DHT22;58741;52.672;13.548;2022-12-20T04:59:47;3.60;99.90
71084;DHT22;58741;52.672;13.548;2022-12-20T05:02:13;3.60;99.90
71084;DHT22;58741;52.672;13.548;2022-12-20T05:04:47;3.60;99.90
71084;DHT22;58741;52.672;13.548;2022-12-20T05:07:13;3.60;99.90
71084;DHT22;58741;52.672;13.548;2022-12-20T05:09:44;3.60;99.90
71084;DHT22;58741;52.672;13.548;2022-12-20T05:12:09;3.60;99.90
71084;DHT22;58741;52.672;13.548;2022-12-20T05:14:37;3.50;99.90
71084;DHT22;58741;52.672;13.548;2022-12-20T05:17:02;3.50;99.90
71084;DHT22;58741;52.672;13.548;2022-12-20T05:19:28;3.50;99.90
71084;DHT22;58741;52.672;13.548;2022-12-20T05:21:54;3.50;99.90
71084;DHT22;58741;52.672;13.548;2022-12-20T05:24:42;3.50;99.90
71084;DHT22;58741;52.672;13.548;2022-12-20T05:27:30;3.50;99.90
71084;DHT22;58741;52.672;13.548;2022-12-20T05:29:55;3.50;99.90
71084;DHT22;58741;52.672;13.548;2022-12-20T05:32:21;3.40;99.90
71084;DHT22;58741;52.672;13.548;2022-12-20T05:34:47;3.50;99.90
71084;DHT22;58741;52.672;13.548;2022-12-20T05:37:14;3.40;99.90
71084;DHT22;58741;52.672;13.548;2022-12-20T05:39:41;3.40;99.90
71084;DHT22;58741;52.672;13.548;2022-12-20T05:42:13;3.40;99.90
71084;DHT22;58741;52.672;13.548;2022-12-20T05:44:38;3.50;99.90
71084;DHT22;58741;52.672;13.548;2022-12-20T05:47:04;3.50;99.90
71084;DHT22;58741;52.672;13.548;2022-12-20T05:49:33;3.50;99.90
71084;DHT22;58741;52.672;13.548;2022-12-20T05:52:01;3.50;99.90
71084;DHT22;58741;52.672;13.548;2022-12-20T05:54:27;3.50;99.90
71084;DHT22;58741;52.672;13.548;2022-12-20T05:57:12;3.50;99.90
71084;DHT22;58741;52.672;13.548;2022-12-20T05:59:40;3.60;99.90
71084;DHT22;58741;52.672;13.548;2022-12-20T06:02:12;3.60;99.90
71084;DHT22;58741;52.672;13.548;2022-12-20T06:04:38;3.60;99.90
71084;DHT22;58741;52.672;13.548;2022-12-20T06:07:12;3.60;99.90
71084;DHT22;58741;52.672;13.548;2022-12-20T06:09:38;3.60;99.90
71084;DHT22;58741;52.672;13.548;2022-12-20T06:12:08;3.70;99.90
71084;DHT22;58741;52.672;13.548;2022-12-20T06:14:34;3.70;99.90
71084;DHT22;58741;52.672;13.548;2022-12-20T06:17:00;3.70;99.90
71084;DHT22;58741;52.672;13.548;2022-12-20T06:19:26;3.80;99.90
71084;DHT22;58741;52.672;13.548;2022-12-20T06:21:55;3.80;99.90
71084;DHT22;58741;52.672;13.548;2022-12-20T06:24:29;3.80;99.90
71084;DHT22;58741;52.672;13.548;2022-12-20T06:26:55;3.90;99.90
71084;DHT22;58741;52.672;13.548;2022-12-20T06:29:23;3.90;99.90
71084;DHT22;58741;52.672;13.548;2022-12-20T06:31:53;3.90;99.90
71084;DHT22;58741;52.672;13.548;2022-12-20T06:34:19;4.00;99.90
71084;DHT22;58741;52.672;13.548;2022-12-20T06:36:45;3.90;99.90
71084;DHT22;58741;52.672;13.548;2022-12-20T06:39:16;3.90;99.90
71084;DHT22;58741;52.672;13.548;2022-12-20T06:41:50;4.00;99.90
71084;DHT22;58741;52.672;13.548;2022-12-20T06:44:16;4.00;99.90
71084;DHT22;58741;52.672;13.548;2022-12-20T06:46:42;4.00;99.90
71084;DHT22;58741;52.672;13.548;2022-12-20T06:49:07;4.00;99.90
71084;DHT22;58741;52.672;13.548;2022-12-20T06:51:33;4.00;99.90
71084;DHT22;58741;52.672;13.548;2022-12-20T06:53:59;4.00;99.90
71084;DHT22;58741;52.672;13.548;2022-12-20T06:56:27;4.10;99.90
71084;DHT22;58741;52.672;13.548;2022-12-20T06:58:53;4.10;99.90
71084;DHT22;58741;52.672;13.548;2022-12-20T07:01:19;4.10;99.90
71084;DHT22;58741;52.672;13.548;2022-12-20T07:03:44;4.10;99.90
71084;DHT22;58741;52.672;13.548;2022-12-20T07:06:10;4.10;99.90
71084;DHT22;58741;52.672;13.548;2022-12-20T07:08:35;4.10;99.90
71084;DHT22;58741;52.672;13.548;2022-12-20T07:11:05;4.20;99.90
71084;DHT22;58741;52.672;13.548;2022-12-20T07:13:31;4.20;99.90
71084;DHT22;58741;52.672;13.548;2022-12-20T07:15:59;4.20;99.90
71084;DHT22;58741;52.672;13.548;2022-12-20T07:18:24;4.20;99.90
71084;DHT22;58741;52.672;13.548;2022-12-20T07:20:50;4.30;99.90
71084;DHT22;58741;52.672;13.548;2022-12-20T07:23:16;4.30;99.90
71084;DHT22;58741;52.672;13.548;2022-12-20T07:25:41;4.30;99.90
71084;DHT22;58741;52.672;13.548;2022-12-20T07:28:07;4.30;99.90
71084;DHT22;58741;52.672;13.548;2022-12-20T07:30:32;4.30;99.90
71084;DHT22;58741;52.672;13.548;2022-12-20T07:32:58;4.30;99.90
71084;DHT22;58741;52.672;13.548;2022-12-20T07:35:23;4.30;99.90
71084;DHT22;58741;52.672;13.548;2022-12-20T07:37:49;4.40;99.90
71084;DHT22;58741;52.672;13.548;2022-12-20T07:40:14;4.40;99.90
71084;DHT22;58741;52.672;13.548;2022-12-20T07:42:40;4.40;99.90
71084;DHT22;58741;52.672;13.548;2022-12-20T07:45:06;4.40;99.90
71084;DHT22;58741;52.672;13.548;2022-12-20T07:47:32;4.40;99.90
71084;DHT22;58741;52.672;13.548;2022-12-20T07:50:00;4.40;99.90
71084;DHT22;58741;52.672;13.548;2022-12-20T07:52:27;4.40;99.90
71084;DHT22;58741;52.672;13.548;2022-12-20T07:54:57;4.40;99.90
71084;DHT22;58741;52.672;13.548;2022-12-20T07:57:28;4.40;99.90
71084;DHT22;58741;52.672;13.548;2022-12-20T07:59:58;4.40;99.90
71084;DHT22;58741;52.672;13.548;2022-12-20T08:02:34;4.50;99.90
71084;DHT22;58741;52.672;13.548;2022-12-20T08:05:02;4.50;99.90
71084;DHT22;58741;52.672;13.548;2022-12-20T08:07:28;4.50;99.90
71084;DHT22;58741;52.672;13.548;2022-12-20T08:09:54;4.60;99.90
71084;DHT22;58741;52.672;13.548;2022-12-20T08:12:20;4.60;99.90
71084;DHT22;58741;52.672;13.548;2022-12-20T08:14:47;4.60;99.90
71084;DHT22;58741;52.672;13.548;2022-12-20T08:17:12;4.60;99.90
71084;DHT22;58741;52.672;13.548;2022-12-20T08:19:38;4.60;99.90
71084;DHT22;58741;52.672;13.548;2022-12-20T08:22:04;4.70;99.90
71084;DHT22;58741;52.672;13.548;2022-12-20T08:24:31;4.70;99.90
71084;DHT22;58741;52.672;13.548;2022-12-20T08:26:57;4.70;99.90
71084;DHT22;58741;52.672;13.548;2022-12-20T08:29:23;4.70;99.90
71084;DHT22;58741;52.672;13.548;2022-12-20T08:31:48;4.70;99.90
71084;DHT22;58741;52.672;13.548;2022-12-20T08:34:14;4.70;99.90
71084;DHT22;58741;52.672;13.548;2022-12-20T08:36:39;4.80;99.90
71084;DHT22;58741;52.672;13.548;2022-12-20T08:39:06;4.80;99.90
71084;DHT22;58741;52.672;13.548;2022-12-20T08:41:33;4.80;99.90
71084;DHT22;58741;52.672;13.548;2022-12-20T08:43:59;4.80;99.90
71084;DHT22;58741;52.672;13.548;2022-12-20T08:46:24;4.80;99.90
71084;DHT22;58741;52.672;13.548;2022-12-20T08:48:50;4.80;99.90
71084;DHT22;58741;52.672;13.548;2022-12-20T08:51:16;4.90;99.90
71084;DHT22;58741;52.672;13.548;2022-12-20T08:53:42;4.90;99.90
71084;DHT22;58741;52.672;13.548;2022-12-20T08:56:12;4.90;99.90
71084;DHT22;58741;52.672;13.548;2022-12-20T08:58:39;4.90;99.90
71084;DHT22;58741;52.672;13.548;2022-12-20T09:01:07;4.90;99.90
71084;DHT22;58741;52.672;13.548;2022-12-20T09:03:34;5.00;99.90
71084;DHT22;58741;52.672;13.548;2022-12-20T09:06:00;5.00;99.90
71084;DHT22;58741;52.672;13.548;2022-12-20T09:08:59;5.00;99.90
71084;DHT22;58741;52.672;13.548;2022-12-20T09:11:26;5.00;99.90
71084;DHT22;58741;52.672;13.548;2022-12-20T09:13:53;5.00;99.90
71084;DHT22;58741;52.672;13.548;2022-12-20T09:16:22;5.10;99.90
71084;DHT22;58741;52.672;13.548;2022-12-20T09:18:49;5.10;99.90
71084;DHT22;58741;52.672;13.548;2022-12-20T09:21:15;5.10;99.90
71084;DHT22;58741;52.672;13.548;2022-12-20T09:23:40;5.10;99.90
71084;DHT22;58741;52.672;13.548;2022-12-20T09:26:11;5.10;99.90
71084;DHT22;58741;52.672;13.548;2022-12-20T09:28:37;5.20;99.90
71084;DHT22;58741;52.672;13.548;2022-12-20T09:31:05;5.20;99.90
71084;DHT22;58741;52.672;13.548;2022-12-20T09:33:32;5.30;99.90
71084;DHT22;58741;52.672;13.548;2022-12-20T09:35:58;5.30;99.90
71084;DHT22;58741;52.672;13.548;2022-12-20T09:38:24;5.40;99.90
71084;DHT22;58741;52.672;13.548;2022-12-20T09:40:52;5.40;99.90
71084;DHT22;58741;52.672;13.548;2022-12-20T09:43:19;5.50;99.90
71084;DHT22;58741;52.672;13.548;2022-12-20T09:45:48;5.60;99.90
71084;DHT22;58741;52.672;13.548;2022-12-20T09:48:19;5.60;99.90
71084;DHT22;58741;52.672;13.548;2022-12-20T09:50:56;5.60;99.90
71084;DHT22;58741;52.672;13.548;2022-12-20T09:56:02;5.80;99.90
71084;DHT22;58741;52.672;13.548;2022-12-20T09:58:54;5.80;99.90
71084;DHT22;58741;52.672;13.548;2022-12-20T10:01:22;5.90;99.90
71084;DHT22;58741;52.672;13.548;2022-12-20T10:03:49;5.90;99.90
71084;DHT22;58741;52.672;13.548;2022-12-20T10:06:32;5.90;99.90
71084;DHT22;58741;52.672;13.548;2022-12-20T10:09:03;6.00;99.90
71084;DHT22;58741;52.672;13.548;2022-12-20T10:11:52;6.00;99.90
71084;DHT22;58741;52.672;13.548;2022-12-20T10:22:53;6.10;99.90
71084;DHT22;58741;52.672;13.548;2022-12-20T10:25:22;6.20;99.90
71084;DHT22;58741;52.672;13.548;2022-12-20T10:27:50;6.20;99.90
71084;DHT22;58741;52.672;13.548;2022-12-20T10:30:21;6.30;99.90
71084;DHT22;58741;52.672;13.548;2022-12-20T10:32:50;6.30;99.90
71084;DHT22;58741;52.672;13.548;2022-12-20T10:35:28;6.40;99.90
71084;DHT22;58741;52.672;13.548;2022-12-20T10:38:00;6.40;99.90
71084;DHT22;58741;52.672;13.548;2022-12-20T10:40:31;6.50;99.90
71084;DHT22;58741;52.672;13.548;2022-12-20T10:42:58;6.50;99.90
71084;DHT22;58741;52.672;13.548;2022-12-20T10:47:59;6.60;99.90
71084;DHT22;58741;52.672;13.548;2022-12-20T10:50:25;6.70;99.90
71084;DHT22;58741;52.672;13.548;2022-12-20T10:53:19;6.70;99.90
71084;DHT22;58741;52.672;13.548;2022-12-20T10:55:45;6.70;99.90
71084;DHT22;58741;52.672;13.548;2022-12-20T11:00:39;6.80;99.90
71084;DHT22;58741;52.672;13.548;2022-12-20T11:03:16;6.80;99.90
71084;DHT22;58741;52.672;13.548;2022-12-20T11:06:00;6.80;99.90
71084;DHT22;58741;52.672;13.548;2022-12-20T11:08:29;6.90;99.90
71084;DHT22;58741;52.672;13.548;2022-12-20T11:11:17;6.90;99.90
71084;DHT22;58741;52.672;13.548;2022-12-20T11:13:45;6.90;99.90
71084;DHT22;58741;52.672;13.548;2022-12-20T11:16:35;6.90;99.90
71084;DHT22;58741;52.672;13.548;2022-12-20T11:22:04;7.00;99.90
71084;DHT22;58741;52.672;13.548;2022-12-20T11:27:41;7.00;99.90
71084;DHT22;58741;52.672;13.548;2022-12-20T11:30:18;7.00;99.90
71084;DHT22;58741;52.672;13.548;2022-12-20T11:33:01;7.10;99.90
71084;DHT22;58741;52.672;13.548;2022-12-20T11:38:39;7.10;99.90
71084;DHT22;58741;52.672;13.548;2022-12-20T11:41:37;7.10;99.90
71084;DHT22;58741;52.672;13.548;2022-12-20T11:47:11;7.10;99.90
71084;DHT22;58741;52.672;13.548;2022-12-20T11:52:48;7.10;99.90
71084;DHT22;58741;52.672;13.548;2022-12-20T11:55:30;7.20;99.90
71084;DHT22;58741;52.672;13.548;2022-12-20T11:58:00;7.20;99.90
71084;DHT22;58741;52.672;13.548;2022-12-20T12:00:28;7.30;99.90
71084;DHT22;58741;52.672;13.548;2022-12-20T12:05:49;7.30;99.90
71084;DHT22;58741;52.672;13.548;2022-12-20T12:08:24;7.40;99.90
71084;DHT22;58741;52.672;13.548;2022-12-20T12:11:14;7.40;99.90
71084;DHT22;58741;52.672;13.548;2022-12-20T12:13:39;7.40;99.90
71084;DHT22;58741;52.672;13.548;2022-12-20T12:16:11;7.40;99.90
71084;DHT22;58741;52.672;13.548;2022-12-20T12:18:39;7.40;99.90
71084;DHT22;58741;52.672;13.548;2022-12-20T12:21:22;7.40;99.90
71084;DHT22;58741;52.672;13.548;2022-12-20T12:26:36;7.50;99.90
71084;DHT22;58741;52.672;13.548;2022-12-20T12:29:16;7.50;99.90
71084;DHT22;58741;52.672;13.548;2022-12-20T12:32:25;7.50;99.90
71084;DHT22;58741;52.672;13.548;2022-12-20T12:40:45;7.50;99.90
71084;DHT22;58741;52.672;13.548;2022-12-20T12:46:18;7.50;99.90
71084;DHT22;58741;52.672;13.548;2022-12-20T12:49:09;7.60;99.90
71084;DHT22;58741;52.672;13.548;2022-12-20T12:51:38;7.60;99.90
71084;DHT22;58741;52.672;13.548;2022-12-20T12:56:39;7.60;99.90
71084;DHT22;58741;52.672;13.548;2022-12-20T13:06:55;7.70;99.90
71084;DHT22;58741;52.672;13.548;2022-12-20T13:11:50;7.70;99.90
71084;DHT22;58741;52.672;13.548;2022-12-20T13:16:47;7.70;99.90
71084;DHT22;58741;52.672;13.548;2022-12-20T13:21:56;7.70;99.90
71084;DHT22;58741;52.672;13.548;2022-12-20T13:24:35;7.70;99.90
71084;DHT22;58741;52.672;13.548;2022-12-20T13:27:03;7.70;99.90
71084;DHT22;58741;52.672;13.548;2022-12-20T13:30:00;7.60;99.90
71084;DHT22;58741;52.672;13.548;2022-12-20T13:38:00;7.50;99.90
71084;DHT22;58741;52.672;13.548;2022-12-20T13:45:37;7.40;99.90
71084;DHT22;58741;52.672;13.548;2022-12-20T13:48:05;7.40;99.90
71084;DHT22;58741;52.672;13.548;2022-12-20T13:50:39;7.40;99.90
71084;DHT22;58741;52.672;13.548;2022-12-20T13:53:13;7.40;99.90
71084;DHT22;58741;52.672;13.548;2022-12-20T13:55:40;7.30;99.90
71084;DHT22;58741;52.672;13.548;2022-12-20T13:58:24;7.30;99.90
71084;DHT22;58741;52.672;13.548;2022-12-20T14:00:52;7.30;99.90
71084;DHT22;58741;52.672;13.548;2022-12-20T14:03:24;7.30;99.90
71084;DHT22;58741;52.672;13.548;2022-12-20T14:05:55;7.30;99.90
71084;DHT22;58741;52.672;13.548;2022-12-20T14:08:26;7.30;99.90
71084;DHT22;58741;52.672;13.548;2022-12-20T14:10:52;7.20;99.90
71084;DHT22;58741;52.672;13.548;2022-12-20T14:13:23;7.20;99.90
71084;DHT22;58741;52.672;13.548;2022-12-20T14:15:50;7.20;99.90
71084;DHT22;58741;52.672;13.548;2022-12-20T14:18:21;7.20;99.90
71084;DHT22;58741;52.672;13.548;2022-12-20T14:20:55;7.20;99.90
71084;DHT22;58741;52.672;13.548;2022-12-20T14:23:25;7.20;99.90
71084;DHT22;58741;52.672;13.548;2022-12-20T14:25:54;7.20;99.90
71084;DHT22;58741;52.672;13.548;2022-12-20T14:28:32;7.20;99.90
71084;DHT22;58741;52.672;13.548;2022-12-20T14:31:00;7.20;99.90
71084;DHT22;58741;52.672;13.548;2022-12-20T14:36:15;7.10;99.90
71084;DHT22;58741;52.672;13.548;2022-12-20T14:38:49;7.10;99.90
71084;DHT22;58741;52.672;13.548;2022-12-20T14:41:39;7.10;99.90
71084;DHT22;58741;52.672;13.548;2022-12-20T14:44:17;7.10;99.90
71084;DHT22;58741;52.672;13.548;2022-12-20T14:46:49;7.10;99.90
71084;DHT22;58741;52.672;13.548;2022-12-20T14:49:33;7.00;99.90
71084;DHT22;58741;52.672;13.548;2022-12-20T14:54:31;7.00;99.90
71084;DHT22;58741;52.672;13.548;2022-12-20T14:56:58;6.90;99.90
71084;DHT22;58741;52.672;13.548;2022-12-20T14:59:27;6.90;99.90
71084;DHT22;58741;52.672;13.548;2022-12-20T15:01:53;6.90;99.90
71084;DHT22;58741;52.672;13.548;2022-12-20T15:04:31;6.90;99.90
71084;DHT22;58741;52.672;13.548;2022-12-20T15:06:58;6.90;99.90
71084;DHT22;58741;52.672;13.548;2022-12-20T15:09:24;6.80;99.90
71084;DHT22;58741;52.672;13.548;2022-12-20T15:11:50;6.80;99.90
71084;DHT22;58741;52.672;13.548;2022-12-20T15:16:47;6.80;99.90
71084;DHT22;58741;52.672;13.548;2022-12-20T15:19:13;6.80;99.90
71084;DHT22;58741;52.672;13.548;2022-12-20T15:21:40;6.80;99.90
71084;DHT22;58741;52.672;13.548;2022-12-20T15:24:14;6.70;99.90
71084;DHT22;58741;52.672;13.548;2022-12-20T15:26:41;6.70;99.90
71084;DHT22;58741;52.672;13.548;2022-12-20T15:29:17;6.70;99.90
71084;DHT22;58741;52.672;13.548;2022-12-20T15:31:42;6.70;99.90
71084;DHT22;58741;52.672;13.548;2022-12-20T15:34:27;6.70;99.90
71084;DHT22;58741;52.672;13.548;2022-12-20T15:36:55;6.70;99.90
71084;DHT22;58741;52.672;13.548;2022-12-20T15:39:25;6.70;99.90
71084;DHT22;58741;52.672;13.548;2022-12-20T15:41:51;6.60;99.90
71084;DHT22;58741;52.672;13.548;2022-12-20T15:44:20;6.60;99.90
71084;DHT22;58741;52.672;13.548;2022-12-20T15:46:47;6.60;99.90
71084;DHT22;58741;52.672;13.548;2022-12-20T15:49:23;6.60;99.90
71084;DHT22;58741;52.672;13.548;2022-12-20T15:51:51;6.60;99.90
71084;DHT22;58741;52.672;13.548;2022-12-20T15:54:35;6.60;99.90
71084;DHT22;58741;52.672;13.548;2022-12-20T15:57:03;6.60;99.90
71084;DHT22;58741;52.672;13.548;2022-12-20T15:59:32;6.50;99.90
71084;DHT22;58741;52.672;13.548;2022-12-20T16:01:58;6.60;99.90
71084;DHT22;58741;52.672;13.548;2022-12-20T16:04:24;6.50;99.90
71084;DHT22;58741;52.672;13.548;2022-12-20T16:06:50;6.50;99.90
71084;DHT22;58741;52.672;13.548;2022-12-20T16:09:18;6.50;99.90
71084;DHT22;58741;52.672;13.548;2022-12-20T16:11:44;6.40;99.90
71084;DHT22;58741;52.672;13.548;2022-12-20T16:14:19;6.40;99.90
71084;DHT22;58741;52.672;13.548;2022-12-20T16:16:48;6.40;99.90
71084;DHT22;58741;52.672;13.548;2022-12-20T16:19:14;6.30;99.90
71084;DHT22;58741;52.672;13.548;2022-12-20T16:21:44;6.30;99.90
71084;DHT22;58741;52.672;13.548;2022-12-20T16:24:12;6.30;99.90
71084;DHT22;58741;52.672;13.548;2022-12-20T16:26:38;6.30;99.90
71084;DHT22;58741;52.672;13.548;2022-12-20T16:29:04;6.30;99.90
71084;DHT22;58741;52.672;13.548;2022-12-20T16:31:39;6.30;99.90
71084;DHT22;58741;52.672;13.548;2022-12-20T16:34:13;6.20;99.90
71084;DHT22;58741;52.672;13.548;2022-12-20T16:36:39;6.20;99.90
71084;DHT22;58741;52.672;13.548;2022-12-20T16:39:05;6.20;99.90
71084;DHT22;58741;52.672;13.548;2022-12-20T16:41:32;6.20;99.90
71084;DHT22;58741;52.672;13.548;2022-12-20T16:44:00;6.20;99.90
71084;DHT22;58741;52.672;13.548;2022-12-20T16:46:28;6.10;99.90
71084;DHT22;58741;52.672;13.548;2022-12-20T16:48:56;6.10;99.90
71084;DHT22;58741;52.672;13.548;2022-12-20T16:53:53;6.10;99.90
71084;DHT22;58741;52.672;13.548;2022-12-20T16:56:20;6.00;99.90
71084;DHT22;58741;52.672;13.548;2022-12-20T16:58:46;6.00;99.90
71084;DHT22;58741;52.672;13.548;2022-12-20T17:01:15;6.00;99.90
71084;DHT22;58741;52.672;13.548;2022-12-20T17:03:43;6.00;99.90
71084;DHT22;58741;52.672;13.548;2022-12-20T17:06:11;5.90;99.90
71084;DHT22;58741;52.672;13.548;2022-12-20T17:08:37;5.90;99.90
71084;DHT22;58741;52.672;13.548;2022-12-20T17:11:11;5.90;99.90
71084;DHT22;58741;52.672;13.548;2022-12-20T17:13:37;5.90;99.90
71084;DHT22;58741;52.672;13.548;2022-12-20T17:16:03;5.90;99.90
71084;DHT22;58741;52.672;13.548;2022-12-20T17:18:29;5.80;99.90
71084;DHT22;58741;52.672;13.548;2022-12-20T17:20:55;5.80;99.90
71084;DHT22;58741;52.672;13.548;2022-12-20T17:23:20;5.80;99.90